Time;durP1;ratioP1;P1;durP2;ratioP2;P2;SDS_P1;SDS_P2;PMS_P1;PMS_P2;Temp;Humidity;BMP_temperature;BMP_pressure;BME280_temperature;BME280_humidity;BME280_pressure;Samples;Min_cycle;Max_cycle;Signal;HPM_P1;HPM_P2
2021/01/26 00:00:54;;;;;;;27.63;16.27;;;102.90;2201.60;;;;;;5133509;27;20492;-79
2021/01/26 00:03:21;;;;;;;31.87;16.70;;;103.00;2176.00;;;;;;5134806;27;20061;-79
2021/01/26 00:05:47;;;;;;;42.90;18.43;;;103.00;2176.00;;;;;;5133485;27;20062;-78
2021/01/26 00:08:13;;;;;;;31.90;19.10;;;103.00;2176.00;;;;;;5134804;27;20357;-79
2021/01/26 00:10:39;;;;;;;39.53;21.43;;;103.00;2176.00;;;;;;5135020;27;20031;-79
2021/01/26 00:13:06;;;;;;;34.03;21.97;;;103.00;2201.60;;;;;;5134630;27;20095;-78
2021/01/26 00:15:33;;;;;;;40.03;23.93;;;103.00;2201.60;;;;;;5133046;27;20114;-78
2021/01/26 00:18:00;;;;;;;47.67;26.40;;;103.00;2201.60;;;;;;5132911;27;20554;-78
2021/01/26 00:20:26;;;;;;;49.47;26.07;;;103.00;2227.20;;;;;;5133580;27;20360;-78
2021/01/26 00:22:52;;;;;;;42.17;25.17;;;103.00;2201.60;;;;;;5134802;27;20102;-78
2021/01/26 00:25:27;;;;;;;46.37;27.13;;;102.90;2227.20;;;;;;5134837;27;20131;-78
2021/01/26 00:27:53;;;;;;;44.70;25.40;;;102.90;2227.20;;;;;;5134898;27;20102;-78
2021/01/26 00:30:26;;;;;;;45.13;25.13;;;102.90;2227.20;;;;;;5134474;27;20468;-78
2021/01/26 00:32:52;;;;;;;44.15;24.27;;;102.90;2227.20;;;;;;5134514;27;20039;-78
2021/01/26 00:35:21;;;;;;;48.73;25.23;;;102.80;2227.20;;;;;;5133388;28;20019;-78
2021/01/26 00:37:47;;;;;;;35.47;22.00;;;102.80;2227.20;;;;;;5134460;27;20499;-78
2021/01/26 00:40:14;;;;;;;38.53;21.53;;;102.80;2227.20;;;;;;5133183;28;20023;-78
2021/01/26 00:42:40;;;;;;;31.33;20.23;;;102.70;2227.20;;;;;;5134484;27;20034;-78
2021/01/26 00:45:07;;;;;;;33.20;19.53;;;102.70;2227.20;;;;;;5133066;28;20107;-78
2021/01/26 00:47:33;;;;;;;32.87;19.77;;;102.60;2227.20;;;;;;5134265;27;20031;-78
2021/01/26 00:49:59;;;;;;;29.00;18.30;;;102.60;2227.20;;;;;;5136501;27;20126;-79
2021/01/26 00:52:25;;;;;;;29.23;18.70;;;102.60;2227.20;;;;;;5138770;27;20057;-87
2021/01/26 00:54:51;;;;;;;28.27;18.67;;;102.50;2227.20;;;;;;5139188;27;20052;-87
2021/01/26 00:57:19;;;;;;;30.00;18.30;;;102.50;2227.20;;;;;;5138600;27;20027;-78
2021/01/26 00:59:48;;;;;;;30.00;18.67;;;102.50;2227.20;;;;;;5138147;27;20612;-75
2021/01/26 01:02:15;;;;;;;30.93;20.33;;;102.70;2227.20;;;;;;5138354;27;20383;-75
2021/01/26 01:04:43;;;;;;;30.97;19.83;;;102.50;2227.20;;;;;;5138277;27;20102;-76
2021/01/26 01:07:09;;;;;;;32.53;20.40;;;102.50;2227.20;;;;;;5138530;27;20385;-76
2021/01/26 01:09:36;;;;;;;35.50;20.77;;;102.50;2227.20;;;;;;5138157;27;20030;-78
2021/01/26 01:12:02;;;;;;;33.37;20.60;;;102.60;2227.20;;;;;;5134091;27;20015;-78
2021/01/26 01:14:28;;;;;;;33.13;20.20;;;102.60;2227.20;;;;;;5135424;27;20425;-78
2021/01/26 01:16:54;;;;;;;33.50;20.20;;;102.60;2227.20;;;;;;5137472;27;20018;-78
2021/01/26 01:19:21;;;;;;;31.97;19.63;;;102.60;2227.20;;;;;;5135518;27;20034;-77
2021/01/26 01:21:47;;;;;;;33.63;21.17;;;102.40;2227.20;;;;;;5131697;27;20022;-77
2021/01/26 01:24:13;;;;;;;31.83;20.37;;;102.50;2227.20;;;;;;5137289;27;20068;-78
2021/01/26 01:26:39;;;;;;;34.80;20.20;;;102.50;2227.20;;;;;;5135049;27;20031;-77
2021/01/26 01:29:05;;;;;;;32.47;20.40;;;102.50;2227.20;;;;;;5134275;27;20015;-77
2021/01/26 01:31:32;;;;;;;32.90;21.57;;;102.50;2227.20;;;;;;5135102;27;20031;-78
2021/01/26 01:33:57;;;;;;;33.23;21.17;;;102.50;2227.20;;;;;;5135856;27;20034;-78
2021/01/26 01:36:23;;;;;;;33.47;21.20;;;102.50;2227.20;;;;;;5137039;27;20023;-75
2021/01/26 01:38:49;;;;;;;34.40;20.40;;;102.50;2227.20;;;;;;5130796;27;20076;-78
2021/01/26 01:41:15;;;;;;;30.47;19.70;;;102.50;2227.20;;;;;;5135920;27;20102;-78
2021/01/26 01:43:41;;;;;;;32.50;19.77;;;102.60;2227.20;;;;;;5136962;27;20512;-78
2021/01/26 01:46:14;;;;;;;30.40;20.10;;;102.50;2227.20;;;;;;5137034;27;20076;-78
2021/01/26 01:48:41;;;;;;;32.30;21.40;;;102.50;2227.20;;;;;;5137040;27;20015;-78
2021/01/26 01:51:14;;;;;;;34.23;20.83;;;102.50;2227.20;;;;;;5134246;27;20499;-78
2021/01/26 01:53:59;;;;;;;28.83;19.13;;;102.40;2227.20;;;;;;5136792;27;20019;-78
2021/01/26 01:56:25;;;;;;;30.00;18.63;;;102.40;2227.20;;;;;;5136425;27;20051;-76
2021/01/26 01:58:59;;;;;;;30.27;19.77;;;102.40;2227.20;;;;;;5136288;27;20429;-78
2021/01/26 02:01:29;;;;;;;30.90;20.40;;;102.40;2227.20;;;;;;5136625;27;20058;-78
2021/01/26 02:04:01;;;;;;;32.87;20.50;;;102.50;2227.20;;;;;;5136660;27;20148;-78
2021/01/26 02:06:32;;;;;;;32.50;20.97;;;102.50;2227.20;;;;;;5132875;27;20016;-78
2021/01/26 02:09:18;;;;;;;37.73;21.87;;;102.40;2227.20;;;;;;5135258;27;20015;-77
2021/01/26 02:11:46;;;;;;;35.23;23.63;;;102.40;2227.20;;;;;;5136119;27;20015;-78
2021/01/26 02:14:12;;;;;;;34.97;22.33;;;102.50;2227.20;;;;;;5136208;27;20034;-78
2021/01/26 02:16:57;;;;;;;34.40;22.57;;;102.60;2227.20;;;;;;5136232;27;20087;-75
2021/01/26 02:20:00;;;;;;;36.60;22.00;;;102.40;2227.20;;;;;;5135835;27;20015;-75
2021/01/26 02:22:35;;;;;;;34.37;21.37;;;102.50;2227.20;;;;;;5134096;27;20475;-74
2021/01/26 02:25:38;;;;;;;32.73;20.77;;;102.40;2227.20;;;;;;5136966;27;20479;-76
2021/01/26 02:28:31;;;;;;;32.17;21.00;;;102.40;2227.20;;;;;;5135286;27;20023;-74
2021/01/26 02:31:34;;;;;;;35.15;20.67;;;77.70;2227.20;;;;;;5136669;27;20046;-76
2021/01/26 02:34:30;;;;;;;32.07;20.67;;;77.70;2227.20;;;;;;5136388;27;20038;-76
2021/01/26 02:37:32;;;;;;;32.33;20.57;;;77.70;2227.20;;;;;;5135182;27;20042;-76
2021/01/26 02:40:19;;;;;;;32.93;19.30;;;77.70;2227.20;;;;;;5135084;27;20027;-76
2021/01/26 02:43:22;;;;;;;31.10;19.23;;;77.70;2227.20;;;;;;5136324;27;20037;-75
2021/01/26 02:46:14;;;;;;;35.47;19.97;;;77.70;2227.20;;;;;;5136462;27;20487;-74
2021/01/26 02:48:59;;;;;;;39.20;24.67;;;77.70;2227.20;;;;;;5136469;27;20035;-76
2021/01/26 02:51:34;;;;;;;30.30;20.63;;;77.70;2227.20;;;;;;5134959;27;20109;-74
2021/01/26 02:54:14;;;;;;;32.60;21.83;;;77.70;2227.20;;;;;;5136242;27;20050;-75
2021/01/26 02:57:14;;;;;;;29.13;18.33;;;102.40;2227.20;;;;;;5136080;27;20017;-75
2021/01/26 03:00:25;;;;;;;27.97;18.83;;;77.70;2227.20;;;;;;5132462;27;20074;-75
2021/01/26 03:03:13;;;;;;;28.13;19.13;;;77.70;2227.20;;;;;;5130781;27;20118;-75
2021/01/26 03:05:45;;;;;;;30.37;19.43;;;77.70;2227.20;;;;;;5136013;27;20023;-74
2021/01/26 03:08:17;;;;;;;32.33;20.00;;;77.70;2227.20;;;;;;5134631;27;20023;-76
2021/01/26 03:10:50;;;;;;;35.13;19.93;;;77.70;2227.20;;;;;;5135601;27;20068;-74
2021/01/26 03:13:19;;;;;;;29.75;18.20;;;77.50;2227.20;;;;;;5136077;27;20109;-74
2021/01/26 03:15:59;;;;;;;29.13;19.20;;;77.60;2227.20;;;;;;5134486;27;20023;-75
2021/01/26 03:18:36;;;;;;;25.90;17.37;;;77.60;2227.20;;;;;;5135679;27;20029;-76
2021/01/26 03:21:04;;;;;;;26.77;18.03;;;77.50;2227.20;;;;;;5135719;27;20023;-74
2021/01/26 03:23:45;;;;;;;29.00;18.43;;;77.60;2227.20;;;;;;5135837;27;20363;-76
2021/01/26 03:26:17;;;;;;;26.30;17.47;;;77.60;2227.20;;;;;;5135576;27;20046;-74
2021/01/26 03:28:46;;;;;;;28.27;18.07;;;77.60;2227.20;;;;;;5135486;27;20088;-74
2021/01/26 03:31:16;;;;;;;28.50;17.17;;;77.50;2227.20;;;;;;5134064;27;20444;-75
2021/01/26 03:33:46;;;;;;;25.73;17.80;;;77.50;2227.20;;;;;;5135324;27;20035;-78
2021/01/26 03:36:12;;;;;;;24.90;16.80;;;77.50;2227.20;;;;;;5135669;27;20027;-74
2021/01/26 03:38:38;;;;;;;26.27;16.77;;;77.50;2227.20;;;;;;5135334;27;20387;-75
2021/01/26 03:41:06;;;;;;;25.63;16.40;;;77.60;2227.20;;;;;;5135303;27;20028;-75
2021/01/26 03:43:32;;;;;;;23.73;16.00;;;77.60;2227.20;;;;;;5135164;27;20027;-75
2021/01/26 03:46:08;;;;;;;24.80;16.20;;;77.60;2227.20;;;;;;5135386;27;20076;-75
2021/01/26 03:48:58;;;;;;;23.83;15.97;;;77.50;2227.20;;;;;;5135135;27;20047;-75
2021/01/26 03:52:03;;;;;;;23.47;16.50;;;77.50;2227.20;;;;;;5135028;27;20094;-74
2021/01/26 03:54:32;;;;;;;30.27;17.20;;;77.50;2227.20;;;;;;5130061;27;20067;-76
2021/01/26 03:57:12;;;;;;;28.83;17.80;;;77.50;2227.20;;;;;;5134609;27;20023;-76
2021/01/26 03:59:50;;;;;;;31.77;19.77;;;77.50;2227.20;;;;;;5132409;27;20168;-76
2021/01/26 04:02:57;;;;;;;33.97;20.83;;;77.40;2227.20;;;;;;5130920;27;20030;-77
2021/01/26 04:05:32;;;;;;;37.20;22.20;;;77.50;2227.20;;;;;;5133107;27;20015;-74
2021/01/26 04:08:17;;;;;;;34.43;21.53;;;77.30;2227.20;;;;;;5132248;27;20027;-78
2021/01/26 04:10:50;;;;;;;33.77;19.53;;;77.40;2227.20;;;;;;5132928;27;20554;-76
2021/01/26 04:13:21;;;;;;;28.20;18.40;;;77.30;2227.20;;;;;;5131734;27;20042;-74
2021/01/26 04:15:51;;;;;;;42.83;26.70;;;77.30;2227.20;;;;;;5134307;27;20067;-77
2021/01/26 04:18:24;;;;;;;40.37;25.67;;;77.30;2227.20;;;;;;5131874;27;20039;-75
2021/01/26 04:20:51;;;;;;;52.10;33.28;;;77.30;2227.20;;;;;;5132879;27;20106;-77
2021/01/26 04:23:17;;;;;;;52.23;35.90;;;76.90;2227.20;;;;;;5133007;27;20601;-76
2021/01/26 04:25:48;;;;;;;57.33;37.37;;;77.30;2227.20;;;;;;5134103;27;20453;-76
2021/01/26 04:28:37;;;;;;;52.27;37.30;;;77.30;2227.20;;;;;;5134311;27;20027;-74
2021/01/26 04:31:05;;;;;;;60.73;42.13;;;77.30;2227.20;;;;;;5131040;27;20019;-75
2021/01/26 04:33:30;;;;;;;59.43;40.00;;;77.30;2227.20;;;;;;5132512;27;20031;-76
2021/01/26 04:35:56;;;;;;;53.53;36.30;;;77.30;2227.20;;;;;;5132672;28;20011;-74
2021/01/26 04:38:22;;;;;;;48.43;34.77;;;77.20;2227.20;;;;;;5132562;28;20020;-74
2021/01/26 04:40:48;;;;;;;39.70;26.60;;;77.30;2227.20;;;;;;5132679;28;20026;-74
2021/01/26 04:43:38;;;;;;;34.83;21.73;;;77.30;2227.20;;;;;;5131119;28;20019;-74
2021/01/26 04:46:48;;;;;;;27.13;17.33;;;77.30;2227.20;;;;;;5132564;28;20016;-76
2021/01/26 04:49:38;;;;;;;30.33;16.73;;;77.30;2227.20;;;;;;5131048;28;20030;-77
2021/01/26 04:52:09;;;;;;;28.43;17.53;;;77.20;2227.20;;;;;;5132433;28;20352;-77
2021/01/26 04:54:54;;;;;;;28.87;16.73;;;77.20;2227.20;;;;;;5129824;28;20379;-74
2021/01/26 04:57:35;;;;;;;27.50;16.90;;;77.20;2227.20;;;;;;5130481;28;20026;-74
2021/01/26 05:00:05;;;;;;;26.93;16.33;;;77.10;2227.20;;;;;;5131748;28;20147;-76
2021/01/26 05:03:01;;;;;;;23.77;15.13;;;77.10;2227.20;;;;;;5133730;27;20055;-76
2021/01/26 05:05:34;;;;;;;76.00;34.40;;;77.10;2227.20;;;;;;5132741;28;20030;-76
2021/01/26 05:08:06;;;;;;;97.37;36.70;;;77.10;2227.20;;;;;;5131662;28;20103;-77
2021/01/26 05:10:41;;;;;;;195.90;65.00;;;77.00;2227.20;;;;;;5133619;27;20027;-75
2021/01/26 05:13:17;;;;;;;48.27;25.00;;;77.00;2227.20;;;;;;5133632;27;20080;-75
2021/01/26 05:15:46;;;;;;;26.93;17.70;;;76.90;2227.20;;;;;;5131975;28;20016;-76
2021/01/26 05:18:44;;;;;;;25.00;16.27;;;76.90;2227.20;;;;;;5133510;27;20387;-75
2021/01/26 05:21:42;;;;;;;25.77;15.33;;;76.90;2227.20;;;;;;5132971;28;20479;-77
2021/01/26 05:24:35;;;;;;;21.20;14.90;;;76.90;2227.20;;;;;;5123271;28;20035;-76
2021/01/26 05:27:02;;;;;;;25.73;15.07;;;76.90;2227.20;;;;;;5122838;28;20045;-76
2021/01/26 05:29:29;;;;;;;25.83;15.90;;;76.80;2227.20;;;;;;5133524;28;20118;-76
2021/01/26 05:31:59;;;;;;;25.97;15.97;;;76.80;2227.20;;;;;;5130741;28;20015;-77
2021/01/26 05:34:28;;;;;;;26.03;16.23;;;52.10;2227.20;;;;;;5134327;27;20076;-76
2021/01/26 05:36:54;;;;;;;28.10;16.20;;;76.80;2227.20;;;;;;5137146;27;20064;-74
2021/01/26 05:39:56;;;;;;;32.47;17.30;;;52.10;2227.20;;;;;;5137119;27;20019;-76
2021/01/26 05:42:24;;;;;;;28.20;17.10;;;52.10;2227.20;;;;;;5135305;27;20421;-76
2021/01/26 05:44:56;;;;;;;28.37;15.87;;;52.00;2227.20;;;;;;5137227;27;20024;-78
2021/01/26 05:47:29;;;;;;;30.83;17.27;;;52.00;2227.20;;;;;;5137226;27;20102;-75
2021/01/26 05:49:56;;;;;;;29.92;17.80;;;52.00;2227.20;;;;;;5137342;27;20069;-77
2021/01/26 05:52:33;;;;;;;33.50;20.20;;;52.00;2227.20;;;;;;5137230;27;20019;-75
2021/01/26 05:55:01;;;;;;;28.33;17.07;;;52.00;2227.20;;;;;;5137429;27;20026;-75
2021/01/26 05:57:34;;;;;;;27.10;17.10;;;52.10;2227.20;;;;;;5137127;27;20072;-76
2021/01/26 06:00:25;;;;;;;30.57;18.27;;;52.10;2227.20;;;;;;5136950;27;20441;-76
2021/01/26 06:03:20;;;;;;;29.10;17.07;;;52.00;2227.20;;;;;;5137184;27;20060;-73
2021/01/26 06:06:05;;;;;;;31.17;17.93;;;52.00;2227.20;;;;;;5119889;27;20541;-75
2021/01/26 06:08:31;;;;;;;;;;;52.00;2227.20;;;;;;5137565;27;20028;-76
2021/01/26 06:10:57;;;;;;;32.47;19.33;;;52.00;2227.20;;;;;;5137089;27;19903;-74
2021/01/26 06:13:32;;;;;;;33.90;18.33;;;52.00;2227.20;;;;;;5136962;27;20067;-74
2021/01/26 06:16:24;;;;;;;29.27;17.67;;;52.00;2227.20;;;;;;5137276;27;20486;-74
2021/01/26 06:18:59;;;;;;;28.00;17.47;;;51.90;2227.20;;;;;;5136983;27;20080;-74
2021/01/26 06:21:26;;;;;;;30.17;19.03;;;51.90;2227.20;;;;;;5137092;27;20384;-74
2021/01/26 06:23:52;;;;;;;33.97;19.00;;;52.00;2227.20;;;;;;5136825;27;20055;-74
2021/01/26 06:26:18;;;;;;;31.13;18.90;;;52.00;2227.20;;;;;;5136818;27;20084;-74
2021/01/26 06:28:56;;;;;;;32.57;19.13;;;52.00;2227.20;;;;;;5136684;27;20019;-74
2021/01/26 06:31:50;;;;;;;34.90;21.10;;;52.00;2227.20;;;;;;5136617;27;20026;-74
2021/01/26 06:34:44;;;;;;;32.20;19.77;;;52.00;2227.20;;;;;;5135315;27;20046;-74
2021/01/26 06:37:28;;;;;;;33.23;19.87;;;52.10;2227.20;;;;;;5136508;27;20106;-74
2021/01/26 06:40:09;;;;;;;32.53;20.00;;;52.10;2227.20;;;;;;5135212;27;20038;-74
2021/01/26 06:42:44;;;;;;;31.13;20.20;;;52.10;2227.20;;;;;;5136485;27;20424;-76
2021/01/26 06:45:24;;;;;;;36.33;22.07;;;52.10;2227.20;;;;;;5136203;27;20019;-74
2021/01/26 06:48:02;;;;;;;39.87;22.53;;;76.80;2227.20;;;;;;5135818;27;20067;-74
2021/01/26 06:50:49;;;;;;;33.20;20.60;;;76.80;2227.20;;;;;;5136335;27;20487;-76
2021/01/26 06:53:15;;;;;;;54.70;30.33;;;76.80;2227.20;;;;;;5136212;27;20035;-74
2021/01/26 06:55:52;;;;;;;48.10;26.23;;;76.80;2227.20;;;;;;5136159;27;20065;-74
2021/01/26 06:58:48;;;;;;;33.77;20.40;;;76.90;2227.20;;;;;;5136203;27;20038;-74
2021/01/26 07:01:33;;;;;;;38.97;20.13;;;76.90;2227.20;;;;;;5136065;27;20043;-77
2021/01/26 07:04:20;;;;;;;28.83;17.93;;;76.90;2201.60;;;;;;5135998;27;20072;-74
2021/01/26 07:07:43;;;;;;;31.80;18.30;;;77.00;2201.60;;;;;;5136218;27;20503;-74
2021/01/26 07:10:15;;;;;;;33.80;19.33;;;77.00;2201.60;;;;;;5035933;28;20059;-74
2021/01/26 07:12:41;;;;;;;34.40;19.47;;;77.00;2201.60;;;;;;5121973;27;20046;-77
2021/01/26 07:15:18;;;;;;;34.70;18.67;;;77.00;2201.60;;;;;;5135795;27;20019;-74
2021/01/26 07:18:03;;;;;;;32.57;19.03;;;77.00;2201.60;;;;;;5135711;27;20023;-75
2021/01/26 07:20:41;;;;;;;33.63;19.67;;;77.00;2201.60;;;;;;5135773;27;20047;-76
2021/01/26 07:23:33;;;;;;;41.27;19.90;;;77.00;2201.60;;;;;;5135907;27;20471;-74
2021/01/26 07:26:18;;;;;;;33.97;19.50;;;77.00;2201.60;;;;;;5135810;27;20019;-74
2021/01/26 07:29:13;;;;;;;34.00;20.23;;;76.90;2201.60;;;;;;5135816;27;20124;-75
2021/01/26 07:31:49;;;;;;;;;;;76.90;2227.20;;;;;;5134653;27;20023;-75
2021/01/26 07:34:29;;;;;;;31.30;18.83;;;76.90;2201.60;;;;;;5135315;27;20374;-74
2021/01/26 07:37:02;;;;;;;34.73;19.93;;;76.90;2201.60;;;;;;5134045;27;20023;-74
2021/01/26 07:39:37;;;;;;;31.58;19.58;;;76.90;2227.20;;;;;;5134101;27;20391;-74
2021/01/26 07:42:15;;;;;;;29.70;19.17;;;76.90;2201.60;;;;;;5135600;27;20023;-75
2021/01/26 07:44:47;;;;;;;30.93;20.23;;;77.00;2201.60;;;;;;5135563;27;20058;-74
2021/01/26 07:47:23;;;;;;;34.00;20.50;;;77.00;2201.60;;;;;;5135181;27;20031;-74
2021/01/26 07:50:07;;;;;;;33.60;19.57;;;77.00;2201.60;;;;;;5135219;27;20486;-74
2021/01/26 07:52:35;;;;;;;35.20;20.38;;;77.00;2201.60;;;;;;5135062;27;20023;-77
2021/01/26 07:55:09;;;;;;;43.70;24.60;;;76.90;2201.60;;;;;;5135057;27;20031;-74
2021/01/26 07:57:50;;;;;;;47.25;25.73;;;77.00;2201.60;;;;;;5134804;27;20054;-76
2021/01/26 08:00:22;;;;;;;45.60;26.50;;;77.00;2201.60;;;;;;5134773;27;20046;-74
2021/01/26 08:02:54;;;;;;;76.40;36.93;;;77.00;2201.60;;;;;;5134981;27;20023;-75
2021/01/26 08:05:39;;;;;;;76.57;38.53;;;77.10;2201.60;;;;;;5133574;27;20027;-75
2021/01/26 08:08:07;;;;;;;111.67;44.93;;;77.10;2201.60;;;;;;5133592;27;20023;-74
2021/01/26 08:10:34;;;;;;;166.67;75.10;;;77.20;2201.60;;;;;;5135046;27;20042;-74
2021/01/26 08:13:02;;;;;;;101.53;45.80;;;77.20;2176.00;;;;;;5134757;27;20027;-74
2021/01/26 08:15:34;;;;;;;100.47;46.53;;;77.00;2176.00;;;;;;5134751;27;20022;-74
2021/01/26 08:18:18;;;;;;;68.80;35.13;;;77.30;2176.00;;;;;;5133357;27;20106;-74
2021/01/26 08:20:44;;;;;;;59.13;31.25;;;77.20;2176.00;;;;;;5134941;27;20031;-75
2021/01/26 08:23:19;;;;;;;54.60;27.07;;;77.30;2176.00;;;;;;5133136;27;20027;-77
2021/01/26 08:25:47;;;;;;;58.10;29.10;;;77.40;2176.00;;;;;;5133300;27;20023;-74
2021/01/26 08:28:39;;;;;;;63.17;32.33;;;77.50;2150.40;;;;;;5134550;27;20023;-74
2021/01/26 08:31:23;;;;;;;73.23;36.67;;;77.40;2150.40;;;;;;5134274;27;20102;-75
2021/01/26 08:33:52;;;;;;;59.47;33.43;;;77.50;2150.40;;;;;;5134471;27;20034;-74
2021/01/26 08:36:37;;;;;;;54.00;28.03;;;77.40;2150.40;;;;;;5133143;28;20022;-74
2021/01/26 08:39:06;;;;;;;62.27;30.37;;;77.40;2176.00;;;;;;5134399;28;20023;-74
2021/01/26 08:41:45;;;;;;;66.00;32.17;;;77.40;2150.40;;;;;;5134351;28;20027;-75
2021/01/26 08:44:34;;;;;;;81.83;40.33;;;77.30;2150.40;;;;;;5132841;28;20034;-75
2021/01/26 08:47:00;;;;;;;66.93;33.43;;;77.40;2150.40;;;;;;5101128;28;20032;-76
2021/01/26 08:49:35;;;;;;;48.20;28.97;;;77.50;2150.40;;;;;;5115494;28;20027;-77
2021/01/26 08:52:27;;;;;;;42.00;27.50;;;77.50;2150.40;;;;;;5134240;27;20016;-76
2021/01/26 08:54:55;;;;;;;45.50;25.20;;;77.50;2150.40;;;;;;5122273;28;20031;-75
2021/01/26 08:57:27;;;;;;;45.40;27.27;;;77.50;2176.00;;;;;;5134244;27;20128;-75
2021/01/26 08:59:58;;;;;;;45.57;27.60;;;77.50;2150.40;;;;;;5112032;28;20044;-77
2021/01/26 09:02:38;;;;;;;63.57;29.67;;;77.50;2176.00;;;;;;5113418;28;20027;-77
2021/01/26 09:05:05;;;;;;;85.30;38.80;;;77.50;2150.40;;;;;;5113577;28;20016;-77
2021/01/26 09:07:49;;;;;;;165.83;63.30;;;77.50;2150.40;;;;;;5113495;28;20059;-77
2021/01/26 09:10:48;;;;;;;82.97;37.03;;;77.50;2150.40;;;;;;5114519;28;20030;-76
2021/01/26 09:13:36;;;;;;;132.67;52.37;;;77.50;2176.00;;;;;;5117379;28;20506;-77
2021/01/26 09:16:10;;;;;;;99.00;43.73;;;77.50;2150.40;;;;;;5117090;28;20032;-76
2021/01/26 09:18:37;;;;;;;100.60;41.40;;;77.60;2150.40;;;;;;5116198;28;20027;-78
2021/01/26 09:21:11;;;;;;;50.23;24.70;;;77.50;2150.40;;;;;;5134745;27;20016;-77
2021/01/26 09:23:39;;;;;;;56.25;29.67;;;77.60;2150.40;;;;;;5136425;27;20052;-75
2021/01/26 09:26:16;;;;;;;40.77;26.90;;;77.60;2150.40;;;;;;5135561;27;20054;-77
2021/01/26 09:28:45;;;;;;;66.40;45.87;;;77.60;2150.40;;;;;;5137270;27;20057;-76
2021/01/26 09:31:13;;;;;;;38.97;26.57;;;77.60;2150.40;;;;;;5135696;27;20023;-76
2021/01/26 09:33:39;;;;;;;52.30;41.53;;;77.60;2150.40;;;;;;5135499;27;20042;-77
2021/01/26 09:36:09;;;;;;;38.73;29.63;;;77.70;2150.40;;;;;;5137602;27;20383;-77
2021/01/26 09:38:36;;;;;;;51.83;41.30;;;77.60;2150.40;;;;;;5134759;27;20027;-77
2021/01/26 09:41:14;;;;;;;90.70;74.87;;;77.60;2150.40;;;;;;5136866;27;20031;-74
2021/01/26 09:43:44;;;;;;;40.03;26.97;;;77.70;2176.00;;;;;;5137251;27;20019;-76
2021/01/26 09:46:09;;;;;;;96.93;78.37;;;77.70;2150.40;;;;;;5137380;27;20019;-77
2021/01/26 09:48:40;;;;;;;52.77;40.30;;;77.70;2150.40;;;;;;5137299;27;20026;-76
2021/01/26 09:51:10;;;;;;;31.00;20.90;;;77.70;2124.80;;;;;;5120638;27;20072;-86
2021/01/26 09:53:36;;;;;;;52.10;41.17;;;77.70;2124.80;;;;;;5135590;27;20466;-78
2021/01/26 09:56:04;;;;;;;50.83;32.07;;;102.40;2124.80;;;;;;5134768;27;20103;-78
2021/01/26 09:58:30;;;;;;;300.63;134.67;;;102.40;2124.80;;;;;;5136544;27;20027;-78
2021/01/26 10:00:56;;;;;;;727.33;315.50;;;102.50;2124.80;;;;;;5136596;27;20041;-77
2021/01/26 10:03:24;;;;;;;861.83;368.70;;;102.60;2124.80;;;;;;5137130;27;20080;-75
2021/01/26 10:05:54;;;;;;;553.23;226.57;;;102.60;2099.20;;;;;;5137062;27;20098;-76
2021/01/26 10:08:19;;;;;;;739.23;408.03;;;102.70;2099.20;;;;;;5136830;27;20062;-78
2021/01/26 10:10:45;;;;;;;214.50;109.47;;;102.70;2099.20;;;;;;5135349;27;20452;-76
2021/01/26 10:13:26;;;;;;;371.30;217.13;;;102.70;2099.20;;;;;;5136714;27;20034;-76
2021/01/26 10:15:52;;;;;;;133.47;88.83;;;102.80;2099.20;;;;;;5134887;27;20011;-76
2021/01/26 10:18:21;;;;;;;87.83;66.43;;;102.80;2073.60;;;;;;5135006;27;20053;-76
2021/01/26 10:20:47;;;;;;;56.43;35.63;;;102.80;2099.20;;;;;;5134914;27;20023;-76
2021/01/26 10:23:25;;;;;;;39.63;25.40;;;102.90;2099.20;;;;;;5133633;27;20015;-77
2021/01/26 10:25:53;;;;;;;43.80;23.33;;;102.90;2073.60;;;;;;5133656;27;20019;-77
2021/01/26 10:28:25;;;;;;;41.63;24.13;;;102.90;2073.60;;;;;;5134884;27;20110;-77
2021/01/26 10:30:52;;;;;;;36.47;22.27;;;103.00;2073.60;;;;;;5136291;27;20035;-78
2021/01/26 10:33:38;;;;;;;39.07;24.80;;;103.00;2048.00;;;;;;5135876;27;20043;-76
2021/01/26 10:36:25;;;;;;;38.67;25.00;;;103.00;2048.00;;;;;;5135239;27;20026;-76
2021/01/26 10:38:53;;;;;;;38.60;23.10;;;103.10;2048.00;;;;;;5134048;27;20022;-76
2021/01/26 10:41:34;;;;;;;41.40;24.30;;;103.10;2022.40;;;;;;5133561;27;20027;-75
2021/01/26 10:44:09;;;;;;;91.57;47.23;;;103.10;2022.40;;;;;;5135212;27;20147;-77
2021/01/26 10:46:44;;;;;;;66.00;35.87;;;103.10;2022.40;;;;;;5134751;27;20492;-76
2021/01/26 10:49:35;;;;;;;33.37;21.30;;;103.10;2022.40;;;;;;5135318;27;20033;-76
2021/01/26 10:52:04;;;;;;;29.93;17.70;;;103.20;1996.80;;;;;;5134263;27;20048;-76
2021/01/26 10:54:30;;;;;;;26.17;16.80;;;103.10;1971.20;;;;;;5136184;27;20037;-75
2021/01/26 10:56:56;;;;;;;39.00;20.60;;;103.10;1945.60;;;;;;5135002;27;20052;-76
2021/01/26 10:59:22;;;;;;;33.83;20.97;;;103.00;1945.60;;;;;;5134945;27;20129;-77
2021/01/26 11:01:49;;;;;;;26.07;16.37;;;103.30;1945.60;;;;;;5135444;27;20019;-75
2021/01/26 11:04:16;;;;;;;31.10;19.30;;;128.00;1920.00;;;;;;5133974;27;20023;-76
2021/01/26 11:06:43;;;;;;;34.07;20.93;;;128.00;1945.60;;;;;;5131120;27;20040;-76
2021/01/26 11:09:10;;;;;;;30.60;18.53;;;128.10;1945.60;;;;;;5134830;27;20019;-76
2021/01/26 11:11:36;;;;;;;40.13;21.93;;;128.10;1920.00;;;;;;5135190;27;20059;-76
2021/01/26 11:14:05;;;;;;;27.70;18.30;;;128.10;1920.00;;;;;;5133813;27;20041;-76
2021/01/26 11:16:31;;;;;;;24.40;16.20;;;128.20;1894.40;;;;;;5135427;27;20018;-75
2021/01/26 11:18:59;;;;;;;34.33;19.63;;;128.50;1920.00;;;;;;5135285;27;20027;-76
2021/01/26 11:21:26;;;;;;;34.13;19.90;;;128.40;1894.40;;;;;;5135725;27;20072;-76
2021/01/26 11:23:54;;;;;;;29.73;19.13;;;128.60;1843.20;;;;;;5135585;27;20023;-75
2021/01/26 11:26:21;;;;;;;39.57;21.80;;;128.80;1843.20;;;;;;5135179;27;20479;-76
2021/01/26 11:28:48;;;;;;;31.17;18.27;;;128.80;1868.80;;;;;;5135529;27;20388;-75
2021/01/26 11:31:15;;;;;;;29.17;19.00;;;128.90;1843.20;;;;;;5135066;27;20046;-76
2021/01/26 11:33:41;;;;;;;28.30;16.73;;;128.90;1843.20;;;;;;5134442;27;20464;-76
2021/01/26 11:36:08;;;;;;;28.77;17.13;;;153.60;1843.20;;;;;;5135221;27;20076;-75
2021/01/26 11:38:34;;;;;;;21.57;12.83;;;153.60;1817.60;;;;;;5134994;27;20031;-76
2021/01/26 11:41:02;;;;;;;18.33;13.13;;;153.70;1792.00;;;;;;5134691;27;20023;-78
2021/01/26 11:43:28;;;;;;;20.27;14.13;;;153.70;1792.00;;;;;;5133595;27;20083;-78
2021/01/26 11:45:54;;;;;;;25.00;14.03;;;153.70;1792.00;;;;;;5133485;27;20019;-77
2021/01/26 11:48:21;;;;;;;21.70;13.70;;;153.70;1817.60;;;;;;5134706;27;20027;-77
2021/01/26 11:50:47;;;;;;;24.90;14.53;;;128.90;1792.00;;;;;;5134761;27;20051;-77
2021/01/26 11:53:14;;;;;;;20.10;12.87;;;128.90;1792.00;;;;;;5133176;27;20085;-76
2021/01/26 11:55:41;;;;;;;20.10;12.00;;;153.60;1766.40;;;;;;5134431;27;20061;-76
2021/01/26 11:58:08;;;;;;;19.57;12.60;;;153.60;1740.80;;;;;;5132255;27;20019;-76
2021/01/26 12:00:34;;;;;;;25.00;13.70;;;153.60;1766.40;;;;;;5134264;27;20042;-76
2021/01/26 12:03:02;;;;;;;26.10;15.77;;;153.60;1792.00;;;;;;5129050;27;20056;-76
2021/01/26 12:05:31;;;;;;;21.97;13.53;;;128.90;1740.80;;;;;;5134263;27;20019;-76
2021/01/26 12:07:57;;;;;;;42.57;21.63;;;128.70;1792.00;;;;;;5134109;27;20037;-77
2021/01/26 12:10:24;;;;;;;28.07;16.13;;;128.70;1792.00;;;;;;5131221;27;20091;-76
2021/01/26 12:12:50;;;;;;;36.17;18.77;;;128.60;1792.00;;;;;;5134495;27;20387;-76
2021/01/26 12:15:23;;;;;;;30.97;16.27;;;128.60;1843.20;;;;;;5134622;27;20022;-77
2021/01/26 12:17:49;;;;;;;25.73;16.03;;;128.60;1817.60;;;;;;5134482;27;20023;-76
2021/01/26 12:20:15;;;;;;;37.87;20.03;;;128.60;1792.00;;;;;;5133076;27;20077;-77
2021/01/26 12:22:41;;;;;;;47.00;22.50;;;128.60;1843.20;;;;;;5133180;27;20558;-75
2021/01/26 12:25:09;;;;;;;23.90;14.60;;;128.70;1843.20;;;;;;5134330;27;20088;-75
2021/01/26 12:27:35;;;;;;;27.27;16.33;;;128.60;1817.60;;;;;;5134445;27;20467;-75
2021/01/26 12:30:01;;;;;;;23.27;14.23;;;128.60;1843.20;;;;;;5134301;27;20021;-76
2021/01/26 12:32:27;;;;;;;18.77;12.53;;;128.60;1843.20;;;;;;5133025;27;20490;-77
2021/01/26 12:34:53;;;;;;;18.70;12.40;;;128.60;1843.20;;;;;;5134173;27;20034;-77
2021/01/26 12:37:20;;;;;;;20.97;13.47;;;128.50;1792.00;;;;;;5134434;28;20015;-77